静岡空港の過去48時間の天気

静岡空港 (Shizuoka)

現在時刻: 4/27 14:01 JST (4/27 05:01 UTC) 以下の時間は現地時間です。

過去48時間のMETAR気象情報
時間 風向 風速(m/s) 視程 気温(℃) 湿度(%) 気圧(hPa) 天気現象
27 13:00 南南東 4 10km以上 19 73 1008
27 12:00 南東 3 10km以上 20 64 1009
27 11:00 南東 3 10km以上 20 60 1010
27 10:00 東北東 2 10km以上 20 53 1010
27 09:00 不定 2 10km以上 19 60 1011
27 08:00 北北東 2 10km以上 17 63 1012
27 07:30 北北東 2 10km以上 17 68 1012
26 21:00 北北東 1 10km以上 15 77 1014
26 20:00 静穏 0 10km以上 16 72 1014
26 19:00 静穏 0 10km以上 17 63 1013
26 18:00 静穏 0 10km以上 17 63 1013
26 17:00 2 10km以上 18 56 1012
26 16:00 南南東 3 10km以上 18 64 1011
26 15:00 南南東 4 10km以上 19 56 1011
26 14:00 南南東 5 10km以上 18 60 1011
26 13:00 南南東 6 10km以上 19 60 1011
26 12:00 南南東 5 10km以上 19 60 1010
26 11:00 南南東 4 10km以上 19 64 1010
26 10:00 南東 4 10km以上 19 64 1010
26 09:00 南東 3 10km以上 19 64 1009
26 08:00 2 10km以上 18 64 1008
26 07:30 不定 1 10km以上 17 72 1008
25 21:00 西南西 9 10km以上 16 72 1001
25 20:00 西南西 10 10km以上 17 68 1001
25 19:00 西南西 8 10km以上 18 68 1000
25 18:00 西 7 10km以上 20 64 999
25 17:00 西南西 8 10km以上 21 60 999
25 16:00 西南西 9 10km以上 22 60 998
25 15:00 西 11 10km以上 24 57 998
RJNS 270400Z 15008KT 9999 FEW025 BKN140 19/14 Q1008
RJNS 270300Z 14006KT 110V180 9999 FEW020 SCT030 BKN170 20/13 Q1009
RJNS 270200Z 14006KT 100V180 9999 FEW020 SCT170 BKN/// 20/12 Q1010
RJNS 270100Z 06003KT 340V130 9999 FEW020 SCT150 BKN170 20/10 Q1010
RJNS 270000Z VRB03KT 9999 FEW020 BKN/// 19/11 Q1011
RJNS 262300Z 02003KT 340V060 9999 FEW020 BKN170 BKN/// 17/10 Q1012
RJNS 262230Z 03003KT 330V070 9999 FEW020 BKN180 BKN/// 17/11 Q1012
RJNS 261200Z 03002KT 9999 FEW030 BKN/// 15/11 Q1014
RJNS 261100Z 00000KT 9999 FEW030 BKN/// 16/11 Q1014
RJNS 261000Z 00000KT 9999 FEW030 BKN/// 17/10 Q1013
RJNS 260900Z 00000KT 9999 FEW030 BKN/// 17/10 Q1013
RJNS 260800Z 17003KT 110V220 9999 FEW030 BKN/// 18/09 Q1012
RJNS 260700Z 15006KT 120V190 9999 FEW030 BKN/// 18/11 Q1011
RJNS 260600Z 15008KT 120V190 9999 FEW030 BKN/// 19/10 Q1011
RJNS 260500Z 16009KT 9999 FEW025 BKN/// 18/10 Q1011
RJNS 260400Z 16011KT 120V190 9999 FEW025 BKN/// 19/11 Q1011
RJNS 260300Z 15010KT 120V180 9999 FEW025 BKN/// 19/11 Q1010
RJNS 260200Z 15007KT 100V190 9999 FEW025 BKN/// 19/12 Q1010
RJNS 260100Z 14007KT 110V170 9999 FEW025 BKN/// 19/12 Q1010
RJNS 260000Z 13006KT 090V210 9999 FEW020 19/12 Q1009
RJNS 252300Z 18003KT 110V220 9999 FEW020 18/11 Q1008
RJNS 252230Z VRB02KT 9999 FEW020 BKN035 17/12 Q1008
RJNS 251200Z 25017G27KT 9999 FEW015 BKN/// 16/11 Q1001
RJNS 251100Z 25020KT 9999 FEW015 BKN/// 17/11 Q1001
RJNS 251000Z 25015KT 9999 FEW015 BKN/// 18/12 Q1000
RJNS 250900Z 26014KT 9999 FEW015 BKN/// 20/13 Q0999
RJNS 250800Z 25015KT 9999 FEW015 BKN/// 21/13 Q0999
RJNS 250700Z 25017KT 9999 FEW015 BKN/// 22/14 Q0998
RJNS 250600Z 26021G32KT 9999 FEW015 BKN/// 24/15 Q0998